sensor_id;sensor_type;location;lat;lon;timestamp;P1;durP1;ratioP1;P2;durP2;ratioP2
30048;SDS011;16879;50.852;15.602;2024-02-14T00:00:39;124.90;;;64.50;;
30048;SDS011;16879;50.852;15.602;2024-02-14T00:03:06;136.25;;;69.10;;
30048;SDS011;16879;50.852;15.602;2024-02-14T00:05:33;133.75;;;71.25;;
30048;SDS011;16879;50.852;15.602;2024-02-14T00:07:59;125.63;;;67.95;;
30048;SDS011;16879;50.852;15.602;2024-02-14T00:10:25;125.70;;;67.13;;
30048;SDS011;16879;50.852;15.602;2024-02-14T00:12:51;117.03;;;62.83;;
30048;SDS011;16879;50.852;15.602;2024-02-14T00:15:17;125.70;;;67.35;;
30048;SDS011;16879;50.852;15.602;2024-02-14T00:17:43;119.68;;;61.58;;
30048;SDS011;16879;50.852;15.602;2024-02-14T00:20:09;129.10;;;60.97;;
30048;SDS011;16879;50.852;15.602;2024-02-14T00:22:38;106.97;;;54.88;;
30048;SDS011;16879;50.852;15.602;2024-02-14T00:25:04;103.80;;;52.50;;
30048;SDS011;16879;50.852;15.602;2024-02-14T00:27:30;97.60;;;48.50;;
30048;SDS011;16879;50.852;15.602;2024-02-14T00:29:56;97.78;;;50.42;;
30048;SDS011;16879;50.852;15.602;2024-02-14T00:32:23;92.13;;;45.00;;
30048;SDS011;16879;50.852;15.602;2024-02-14T00:34:49;87.28;;;43.95;;
30048;SDS011;16879;50.852;15.602;2024-02-14T00:37:15;99.90;;;48.38;;
30048;SDS011;16879;50.852;15.602;2024-02-14T00:39:41;112.18;;;60.75;;
30048;SDS011;16879;50.852;15.602;2024-02-14T00:42:06;108.22;;;56.95;;
30048;SDS011;16879;50.852;15.602;2024-02-14T00:44:33;92.55;;;49.97;;
30048;SDS011;16879;50.852;15.602;2024-02-14T00:46:59;88.82;;;46.05;;
30048;SDS011;16879;50.852;15.602;2024-02-14T00:49:26;83.18;;;46.47;;
30048;SDS011;16879;50.852;15.602;2024-02-14T00:51:52;92.45;;;46.70;;
30048;SDS011;16879;50.852;15.602;2024-02-14T00:54:18;82.07;;;42.75;;
30048;SDS011;16879;50.852;15.602;2024-02-14T00:56:44;82.30;;;42.75;;
30048;SDS011;16879;50.852;15.602;2024-02-14T00:59:12;80.90;;;42.65;;
30048;SDS011;16879;50.852;15.602;2024-02-14T01:01:38;66.45;;;39.58;;
30048;SDS011;16879;50.852;15.602;2024-02-14T01:04:04;78.05;;;40.17;;
30048;SDS011;16879;50.852;15.602;2024-02-14T01:06:30;68.05;;;36.70;;
30048;SDS011;16879;50.852;15.602;2024-02-14T01:08:58;72.10;;;41.30;;
30048;SDS011;16879;50.852;15.602;2024-02-14T01:11:24;85.10;;;45.67;;
30048;SDS011;16879;50.852;15.602;2024-02-14T01:13:51;73.05;;;40.88;;
30048;SDS011;16879;50.852;15.602;2024-02-14T01:16:17;71.30;;;39.47;;
30048;SDS011;16879;50.852;15.602;2024-02-14T01:18:43;71.97;;;38.83;;
30048;SDS011;16879;50.852;15.602;2024-02-14T01:21:09;70.82;;;40.53;;
30048;SDS011;16879;50.852;15.602;2024-02-14T01:23:35;84.63;;;45.92;;
30048;SDS011;16879;50.852;15.602;2024-02-14T01:26:01;91.90;;;52.22;;
30048;SDS011;16879;50.852;15.602;2024-02-14T01:28:27;103.40;;;52.75;;
30048;SDS011;16879;50.852;15.602;2024-02-14T01:30:53;83.00;;;47.60;;
30048;SDS011;16879;50.852;15.602;2024-02-14T01:33:19;83.47;;;48.53;;
30048;SDS011;16879;50.852;15.602;2024-02-14T01:35:45;81.82;;;45.03;;
30048;SDS011;16879;50.852;15.602;2024-02-14T01:38:11;79.38;;;42.72;;
30048;SDS011;16879;50.852;15.602;2024-02-14T01:40:38;79.10;;;46.15;;
30048;SDS011;16879;50.852;15.602;2024-02-14T01:43:04;70.93;;;42.40;;
30048;SDS011;16879;50.852;15.602;2024-02-14T01:45:30;78.47;;;44.65;;
30048;SDS011;16879;50.852;15.602;2024-02-14T01:47:55;76.82;;;42.17;;
30048;SDS011;16879;50.852;15.602;2024-02-14T01:50:21;84.55;;;50.13;;
30048;SDS011;16879;50.852;15.602;2024-02-14T01:52:55;93.95;;;53.22;;
30048;SDS011;16879;50.852;15.602;2024-02-14T01:55:24;78.68;;;45.90;;
30048;SDS011;16879;50.852;15.602;2024-02-14T01:57:52;80.53;;;45.08;;
30048;SDS011;16879;50.852;15.602;2024-02-14T02:00:18;76.60;;;46.72;;
30048;SDS011;16879;50.852;15.602;2024-02-14T02:02:44;82.95;;;45.90;;
30048;SDS011;16879;50.852;15.602;2024-02-14T02:05:12;81.95;;;47.85;;
30048;SDS011;16879;50.852;15.602;2024-02-14T02:07:38;77.55;;;41.35;;
30048;SDS011;16879;50.852;15.602;2024-02-14T02:10:08;71.35;;;43.38;;
30048;SDS011;16879;50.852;15.602;2024-02-14T02:12:34;78.38;;;44.83;;
30048;SDS011;16879;50.852;15.602;2024-02-14T02:15:04;82.45;;;44.83;;
30048;SDS011;16879;50.852;15.602;2024-02-14T02:17:31;78.32;;;44.60;;
30048;SDS011;16879;50.852;15.602;2024-02-14T02:19:59;68.03;;;42.45;;
30048;SDS011;16879;50.852;15.602;2024-02-14T02:22:26;68.20;;;41.92;;
30048;SDS011;16879;50.852;15.602;2024-02-14T02:24:57;67.88;;;40.08;;
30048;SDS011;16879;50.852;15.602;2024-02-14T02:27:24;67.97;;;39.70;;
30048;SDS011;16879;50.852;15.602;2024-02-14T02:29:51;62.80;;;37.58;;
30048;SDS011;16879;50.852;15.602;2024-02-14T02:32:17;67.20;;;40.00;;
30048;SDS011;16879;50.852;15.602;2024-02-14T02:34:43;74.40;;;42.70;;
30048;SDS011;16879;50.852;15.602;2024-02-14T02:37:10;103.38;;;48.20;;
30048;SDS011;16879;50.852;15.602;2024-02-14T02:39:37;77.55;;;45.10;;
30048;SDS011;16879;50.852;15.602;2024-02-14T02:42:03;89.00;;;50.55;;
30048;SDS011;16879;50.852;15.602;2024-02-14T02:44:30;88.55;;;48.45;;
30048;SDS011;16879;50.852;15.602;2024-02-14T02:46:56;83.57;;;46.72;;
30048;SDS011;16879;50.852;15.602;2024-02-14T02:49:22;97.68;;;49.85;;
30048;SDS011;16879;50.852;15.602;2024-02-14T02:51:49;87.50;;;46.20;;
30048;SDS011;16879;50.852;15.602;2024-02-14T02:54:15;120.93;;;60.55;;
30048;SDS011;16879;50.852;15.602;2024-02-14T02:56:41;90.95;;;52.15;;
30048;SDS011;16879;50.852;15.602;2024-02-14T02:59:08;98.53;;;52.40;;
30048;SDS011;16879;50.852;15.602;2024-02-14T03:01:36;94.28;;;49.90;;
30048;SDS011;16879;50.852;15.602;2024-02-14T03:04:02;133.15;;;55.63;;
30048;SDS011;16879;50.852;15.602;2024-02-14T03:06:29;108.03;;;51.90;;
30048;SDS011;16879;50.852;15.602;2024-02-14T03:08:55;120.38;;;56.70;;
30048;SDS011;16879;50.852;15.602;2024-02-14T03:11:22;106.43;;;54.15;;
30048;SDS011;16879;50.852;15.602;2024-02-14T03:13:50;132.68;;;66.40;;
30048;SDS011;16879;50.852;15.602;2024-02-14T03:16:16;133.55;;;69.90;;
30048;SDS011;16879;50.852;15.602;2024-02-14T03:18:43;118.00;;;63.45;;
30048;SDS011;16879;50.852;15.602;2024-02-14T03:21:09;103.35;;;57.55;;
30048;SDS011;16879;50.852;15.602;2024-02-14T03:23:37;136.40;;;73.63;;
30048;SDS011;16879;50.852;15.602;2024-02-14T03:26:05;113.93;;;58.50;;
30048;SDS011;16879;50.852;15.602;2024-02-14T03:28:32;114.07;;;58.35;;
30048;SDS011;16879;50.852;15.602;2024-02-14T03:31:01;105.05;;;54.22;;
30048;SDS011;16879;50.852;15.602;2024-02-14T03:33:26;100.95;;;54.40;;
30048;SDS011;16879;50.852;15.602;2024-02-14T03:35:54;114.38;;;60.88;;
30048;SDS011;16879;50.852;15.602;2024-02-14T03:38:26;109.72;;;59.85;;
30048;SDS011;16879;50.852;15.602;2024-02-14T03:40:53;122.50;;;63.22;;
30048;SDS011;16879;50.852;15.602;2024-02-14T03:43:19;136.05;;;69.65;;
30048;SDS011;16879;50.852;15.602;2024-02-14T03:45:47;105.25;;;57.85;;
30048;SDS011;16879;50.852;15.602;2024-02-14T03:48:13;121.07;;;64.75;;
30048;SDS011;16879;50.852;15.602;2024-02-14T03:50:39;127.03;;;64.15;;
30048;SDS011;16879;50.852;15.602;2024-02-14T03:53:05;121.60;;;62.78;;
30048;SDS011;16879;50.852;15.602;2024-02-14T03:55:31;120.70;;;64.60;;
30048;SDS011;16879;50.852;15.602;2024-02-14T03:57:57;120.18;;;60.75;;
30048;SDS011;16879;50.852;15.602;2024-02-14T04:00:25;110.43;;;60.70;;
30048;SDS011;16879;50.852;15.602;2024-02-14T04:02:51;113.65;;;59.08;;
30048;SDS011;16879;50.852;15.602;2024-02-14T04:05:18;109.40;;;60.40;;
30048;SDS011;16879;50.852;15.602;2024-02-14T04:07:45;102.18;;;55.75;;
30048;SDS011;16879;50.852;15.602;2024-02-14T04:10:15;112.05;;;55.20;;
30048;SDS011;16879;50.852;15.602;2024-02-14T04:12:41;107.05;;;52.28;;
30048;SDS011;16879;50.852;15.602;2024-02-14T04:15:08;88.47;;;47.90;;
30048;SDS011;16879;50.852;15.602;2024-02-14T04:17:34;98.70;;;52.03;;
30048;SDS011;16879;50.852;15.602;2024-02-14T04:20:00;93.50;;;50.05;;
30048;SDS011;16879;50.852;15.602;2024-02-14T04:22:26;93.57;;;50.65;;
30048;SDS011;16879;50.852;15.602;2024-02-14T04:24:52;100.40;;;55.95;;
30048;SDS011;16879;50.852;15.602;2024-02-14T04:27:17;112.60;;;58.60;;
30048;SDS011;16879;50.852;15.602;2024-02-14T04:29:46;105.82;;;56.97;;
30048;SDS011;16879;50.852;15.602;2024-02-14T04:32:13;103.82;;;55.28;;
30048;SDS011;16879;50.852;15.602;2024-02-14T04:34:39;115.43;;;62.60;;
30048;SDS011;16879;50.852;15.602;2024-02-14T04:37:06;111.20;;;57.08;;
30048;SDS011;16879;50.852;15.602;2024-02-14T04:39:38;107.85;;;60.88;;
30048;SDS011;16879;50.852;15.602;2024-02-14T04:42:04;94.30;;;54.15;;
30048;SDS011;16879;50.852;15.602;2024-02-14T04:44:30;96.28;;;54.58;;
30048;SDS011;16879;50.852;15.602;2024-02-14T04:46:56;93.20;;;53.95;;
30048;SDS011;16879;50.852;15.602;2024-02-14T04:49:25;82.60;;;48.03;;
30048;SDS011;16879;50.852;15.602;2024-02-14T04:51:54;99.30;;;55.83;;
30048;SDS011;16879;50.852;15.602;2024-02-14T04:54:20;96.25;;;51.03;;
30048;SDS011;16879;50.852;15.602;2024-02-14T04:56:46;86.22;;;47.38;;
30048;SDS011;16879;50.852;15.602;2024-02-14T04:59:12;81.38;;;45.42;;
30048;SDS011;16879;50.852;15.602;2024-02-14T05:01:38;81.40;;;46.92;;
30048;SDS011;16879;50.852;15.602;2024-02-14T05:04:07;91.60;;;49.38;;
30048;SDS011;16879;50.852;15.602;2024-02-14T05:06:33;85.07;;;48.13;;
30048;SDS011;16879;50.852;15.602;2024-02-14T05:08:59;101.97;;;54.08;;
30048;SDS011;16879;50.852;15.602;2024-02-14T05:11:25;91.40;;;54.55;;
30048;SDS011;16879;50.852;15.602;2024-02-14T05:13:51;86.45;;;47.90;;
30048;SDS011;16879;50.852;15.602;2024-02-14T05:16:18;130.15;;;67.18;;
30048;SDS011;16879;50.852;15.602;2024-02-14T05:18:44;95.35;;;54.38;;
30048;SDS011;16879;50.852;15.602;2024-02-14T05:21:10;104.82;;;56.78;;
30048;SDS011;16879;50.852;15.602;2024-02-14T05:23:36;107.75;;;58.38;;
30048;SDS011;16879;50.852;15.602;2024-02-14T05:26:03;104.97;;;57.33;;
30048;SDS011;16879;50.852;15.602;2024-02-14T05:28:29;119.55;;;65.60;;
30048;SDS011;16879;50.852;15.602;2024-02-14T05:30:56;122.35;;;65.63;;
30048;SDS011;16879;50.852;15.602;2024-02-14T05:33:22;115.93;;;63.33;;
30048;SDS011;16879;50.852;15.602;2024-02-14T05:35:49;113.10;;;62.03;;
30048;SDS011;16879;50.852;15.602;2024-02-14T05:38:15;120.35;;;66.93;;
30048;SDS011;16879;50.852;15.602;2024-02-14T05:40:41;124.32;;;62.85;;
30048;SDS011;16879;50.852;15.602;2024-02-14T05:43:11;142.23;;;76.78;;
30048;SDS011;16879;50.852;15.602;2024-02-14T05:45:37;121.50;;;67.13;;
30048;SDS011;16879;50.852;15.602;2024-02-14T05:48:03;124.22;;;69.72;;
30048;SDS011;16879;50.852;15.602;2024-02-14T05:50:29;108.93;;;61.75;;
30048;SDS011;16879;50.852;15.602;2024-02-14T05:52:55;123.05;;;67.63;;
30048;SDS011;16879;50.852;15.602;2024-02-14T05:55:24;119.80;;;67.70;;
30048;SDS011;16879;50.852;15.602;2024-02-14T05:57:50;144.82;;;72.68;;
30048;SDS011;16879;50.852;15.602;2024-02-14T06:00:18;199.82;;;93.82;;
30048;SDS011;16879;50.852;15.602;2024-02-14T06:02:45;183.55;;;88.18;;
30048;SDS011;16879;50.852;15.602;2024-02-14T06:05:15;170.70;;;80.40;;
30048;SDS011;16879;50.852;15.602;2024-02-14T06:07:41;183.73;;;87.63;;
30048;SDS011;16879;50.852;15.602;2024-02-14T06:10:07;166.73;;;81.40;;
30048;SDS011;16879;50.852;15.602;2024-02-14T06:12:34;151.38;;;76.43;;
30048;SDS011;16879;50.852;15.602;2024-02-14T06:15:00;124.70;;;66.72;;
30048;SDS011;16879;50.852;15.602;2024-02-14T06:17:27;120.57;;;64.53;;
30048;SDS011;16879;50.852;15.602;2024-02-14T06:19:53;128.82;;;62.35;;
30048;SDS011;16879;50.852;15.602;2024-02-14T06:22:19;166.30;;;90.47;;
30048;SDS011;16879;50.852;15.602;2024-02-14T06:24:46;137.23;;;71.15;;
30048;SDS011;16879;50.852;15.602;2024-02-14T06:27:15;130.32;;;69.88;;
30048;SDS011;16879;50.852;15.602;2024-02-14T06:29:42;145.23;;;78.32;;
30048;SDS011;16879;50.852;15.602;2024-02-14T06:32:13;140.82;;;78.97;;
30048;SDS011;16879;50.852;15.602;2024-02-14T06:34:39;158.02;;;85.25;;
30048;SDS011;16879;50.852;15.602;2024-02-14T06:37:05;152.70;;;81.10;;
30048;SDS011;16879;50.852;15.602;2024-02-14T06:39:31;177.05;;;97.68;;
30048;SDS011;16879;50.852;15.602;2024-02-14T06:41:57;200.45;;;106.47;;
30048;SDS011;16879;50.852;15.602;2024-02-14T06:44:23;181.80;;;99.38;;
30048;SDS011;16879;50.852;15.602;2024-02-14T06:46:49;169.73;;;92.20;;
30048;SDS011;16879;50.852;15.602;2024-02-14T06:49:15;175.75;;;94.55;;
30048;SDS011;16879;50.852;15.602;2024-02-14T06:51:42;143.68;;;80.38;;
30048;SDS011;16879;50.852;15.602;2024-02-14T06:54:10;178.88;;;96.65;;
30048;SDS011;16879;50.852;15.602;2024-02-14T06:56:37;171.07;;;93.75;;
30048;SDS011;16879;50.852;15.602;2024-02-14T06:59:04;181.45;;;101.22;;
30048;SDS011;16879;50.852;15.602;2024-02-14T07:01:30;178.48;;;100.57;;
30048;SDS011;16879;50.852;15.602;2024-02-14T07:03:56;182.15;;;101.03;;
30048;SDS011;16879;50.852;15.602;2024-02-14T07:06:23;155.40;;;84.78;;
30048;SDS011;16879;50.852;15.602;2024-02-14T07:08:49;143.55;;;79.72;;
30048;SDS011;16879;50.852;15.602;2024-02-14T07:11:16;169.25;;;95.38;;
30048;SDS011;16879;50.852;15.602;2024-02-14T07:13:42;171.27;;;96.57;;
30048;SDS011;16879;50.852;15.602;2024-02-14T07:16:07;184.80;;;95.45;;
30048;SDS011;16879;50.852;15.602;2024-02-14T07:18:34;168.85;;;91.25;;
30048;SDS011;16879;50.852;15.602;2024-02-14T07:21:00;163.82;;;94.47;;
30048;SDS011;16879;50.852;15.602;2024-02-14T07:23:26;165.10;;;92.00;;
30048;SDS011;16879;50.852;15.602;2024-02-14T07:25:52;181.13;;;100.68;;
30048;SDS011;16879;50.852;15.602;2024-02-14T07:28:18;180.35;;;99.85;;
30048;SDS011;16879;50.852;15.602;2024-02-14T07:30:44;180.02;;;103.63;;
30048;SDS011;16879;50.852;15.602;2024-02-14T07:33:10;175.02;;;95.32;;
30048;SDS011;16879;50.852;15.602;2024-02-14T07:35:37;162.20;;;95.70;;
30048;SDS011;16879;50.852;15.602;2024-02-14T07:38:03;136.32;;;81.63;;
30048;SDS011;16879;50.852;15.602;2024-02-14T07:40:29;140.40;;;81.18;;
30048;SDS011;16879;50.852;15.602;2024-02-14T07:42:58;129.57;;;75.80;;
30048;SDS011;16879;50.852;15.602;2024-02-14T07:45:24;121.80;;;74.30;;
30048;SDS011;16879;50.852;15.602;2024-02-14T07:47:50;123.05;;;70.32;;
30048;SDS011;16879;50.852;15.602;2024-02-14T07:50:16;154.65;;;86.30;;
30048;SDS011;16879;50.852;15.602;2024-02-14T07:52:42;170.88;;;94.70;;
30048;SDS011;16879;50.852;15.602;2024-02-14T07:55:09;186.65;;;101.07;;
30048;SDS011;16879;50.852;15.602;2024-02-14T07:57:38;173.38;;;98.20;;
30048;SDS011;16879;50.852;15.602;2024-02-14T08:00:05;165.00;;;90.60;;
30048;SDS011;16879;50.852;15.602;2024-02-14T08:02:35;151.25;;;82.93;;
30048;SDS011;16879;50.852;15.602;2024-02-14T08:05:02;140.40;;;81.75;;
30048;SDS011;16879;50.852;15.602;2024-02-14T08:07:29;108.00;;;64.63;;
30048;SDS011;16879;50.852;15.602;2024-02-14T08:09:56;106.47;;;65.60;;
30048;SDS011;16879;50.852;15.602;2024-02-14T08:12:24;92.97;;;56.80;;
30048;SDS011;16879;50.852;15.602;2024-02-14T08:14:51;98.75;;;58.85;;
30048;SDS011;16879;50.852;15.602;2024-02-14T08:17:17;98.10;;;58.60;;
30048;SDS011;16879;50.852;15.602;2024-02-14T08:19:43;93.43;;;55.75;;
30048;SDS011;16879;50.852;15.602;2024-02-14T08:22:09;102.43;;;63.15;;
30048;SDS011;16879;50.852;15.602;2024-02-14T08:24:35;91.45;;;56.72;;
30048;SDS011;16879;50.852;15.602;2024-02-14T08:27:01;90.40;;;54.53;;
30048;SDS011;16879;50.852;15.602;2024-02-14T08:29:27;84.68;;;49.28;;
30048;SDS011;16879;50.852;15.602;2024-02-14T08:31:53;76.72;;;46.33;;
30048;SDS011;16879;50.852;15.602;2024-02-14T08:34:19;77.07;;;44.78;;
30048;SDS011;16879;50.852;15.602;2024-02-14T08:36:45;69.03;;;43.10;;
30048;SDS011;16879;50.852;15.602;2024-02-14T08:39:11;67.63;;;41.65;;
30048;SDS011;16879;50.852;15.602;2024-02-14T08:41:39;71.10;;;44.38;;
30048;SDS011;16879;50.852;15.602;2024-02-14T08:44:10;70.53;;;43.78;;
30048;SDS011;16879;50.852;15.602;2024-02-14T08:46:36;66.57;;;40.53;;
30048;SDS011;16879;50.852;15.602;2024-02-14T08:49:04;63.83;;;40.33;;
30048;SDS011;16879;50.852;15.602;2024-02-14T08:51:34;58.70;;;35.35;;
30048;SDS011;16879;50.852;15.602;2024-02-14T08:54:00;45.78;;;29.45;;
30048;SDS011;16879;50.852;15.602;2024-02-14T08:56:30;49.17;;;32.45;;
30048;SDS011;16879;50.852;15.602;2024-02-14T08:58:59;59.67;;;35.90;;
30048;SDS011;16879;50.852;15.602;2024-02-14T09:01:27;57.88;;;37.08;;
30048;SDS011;16879;50.852;15.602;2024-02-14T09:03:54;51.20;;;33.50;;
30048;SDS011;16879;50.852;15.602;2024-02-14T09:06:20;59.67;;;35.97;;
30048;SDS011;16879;50.852;15.602;2024-02-14T09:08:46;58.72;;;36.05;;
30048;SDS011;16879;50.852;15.602;2024-02-14T09:11:13;51.22;;;31.75;;
30048;SDS011;16879;50.852;15.602;2024-02-14T09:13:39;64.70;;;41.30;;
30048;SDS011;16879;50.852;15.602;2024-02-14T09:16:06;56.53;;;35.35;;
30048;SDS011;16879;50.852;15.602;2024-02-14T09:18:33;62.25;;;39.15;;
30048;SDS011;16879;50.852;15.602;2024-02-14T09:21:00;65.55;;;40.00;;
30048;SDS011;16879;50.852;15.602;2024-02-14T09:23:28;62.03;;;39.05;;
30048;SDS011;16879;50.852;15.602;2024-02-14T09:25:55;44.03;;;29.83;;
30048;SDS011;16879;50.852;15.602;2024-02-14T09:28:22;57.58;;;35.15;;
30048;SDS011;16879;50.852;15.602;2024-02-14T09:30:48;69.07;;;38.55;;
30048;SDS011;16879;50.852;15.602;2024-02-14T09:33:14;62.45;;;35.65;;
30048;SDS011;16879;50.852;15.602;2024-02-14T09:35:41;59.17;;;36.88;;
30048;SDS011;16879;50.852;15.602;2024-02-14T09:38:12;65.18;;;39.13;;
30048;SDS011;16879;50.852;15.602;2024-02-14T09:40:41;74.95;;;41.17;;
30048;SDS011;16879;50.852;15.602;2024-02-14T09:45:50;78.15;;;46.53;;
30048;SDS011;16879;50.852;15.602;2024-02-14T09:48:18;74.75;;;44.75;;
30048;SDS011;16879;50.852;15.602;2024-02-14T09:50:45;79.05;;;42.42;;
30048;SDS011;16879;50.852;15.602;2024-02-14T09:53:13;35.22;;;20.95;;
30048;SDS011;16879;50.852;15.602;2024-02-14T09:55:40;68.97;;;40.75;;
30048;SDS011;16879;50.852;15.602;2024-02-14T09:58:07;73.13;;;43.28;;
30048;SDS011;16879;50.852;15.602;2024-02-14T10:00:34;62.50;;;36.70;;
30048;SDS011;16879;50.852;15.602;2024-02-14T10:03:00;73.70;;;41.85;;
30048;SDS011;16879;50.852;15.602;2024-02-14T10:05:28;67.70;;;40.38;;
30048;SDS011;16879;50.852;15.602;2024-02-14T10:07:56;75.70;;;45.85;;
30048;SDS011;16879;50.852;15.602;2024-02-14T10:10:22;81.65;;;43.40;;
30048;SDS011;16879;50.852;15.602;2024-02-14T10:12:48;72.45;;;43.42;;
30048;SDS011;16879;50.852;15.602;2024-02-14T10:15:15;69.38;;;45.05;;
30048;SDS011;16879;50.852;15.602;2024-02-14T10:17:42;73.95;;;44.72;;
30048;SDS011;16879;50.852;15.602;2024-02-14T10:20:09;70.28;;;42.35;;
30048;SDS011;16879;50.852;15.602;2024-02-14T10:22:36;79.03;;;44.83;;
30048;SDS011;16879;50.852;15.602;2024-02-14T10:25:02;67.25;;;41.70;;
30048;SDS011;16879;50.852;15.602;2024-02-14T10:27:32;72.85;;;46.72;;
30048;SDS011;16879;50.852;15.602;2024-02-14T10:29:59;73.25;;;44.38;;
30048;SDS011;16879;50.852;15.602;2024-02-14T10:32:25;66.53;;;43.50;;
30048;SDS011;16879;50.852;15.602;2024-02-14T10:34:51;76.55;;;49.28;;
30048;SDS011;16879;50.852;15.602;2024-02-14T10:37:17;73.22;;;43.25;;
30048;SDS011;16879;50.852;15.602;2024-02-14T10:39:44;86.40;;;50.83;;
30048;SDS011;16879;50.852;15.602;2024-02-14T10:42:12;76.63;;;45.15;;
30048;SDS011;16879;50.852;15.602;2024-02-14T10:44:38;85.78;;;46.40;;
30048;SDS011;16879;50.852;15.602;2024-02-14T10:47:06;69.93;;;43.15;;
30048;SDS011;16879;50.852;15.602;2024-02-14T10:49:35;63.83;;;38.70;;
30048;SDS011;16879;50.852;15.602;2024-02-14T10:52:04;70.88;;;43.45;;
30048;SDS011;16879;50.852;15.602;2024-02-14T10:54:33;77.15;;;45.53;;
30048;SDS011;16879;50.852;15.602;2024-02-14T10:57:04;68.07;;;42.03;;
30048;SDS011;16879;50.852;15.602;2024-02-14T10:59:41;60.08;;;35.38;;
30048;SDS011;16879;50.852;15.602;2024-02-14T11:02:09;59.83;;;36.90;;
30048;SDS011;16879;50.852;15.602;2024-02-14T11:04:36;63.42;;;38.17;;
30048;SDS011;16879;50.852;15.602;2024-02-14T11:07:02;48.58;;;30.27;;
30048;SDS011;16879;50.852;15.602;2024-02-14T11:09:33;65.40;;;36.65;;
30048;SDS011;16879;50.852;15.602;2024-02-14T11:12:01;78.60;;;46.65;;
30048;SDS011;16879;50.852;15.602;2024-02-14T11:14:34;84.53;;;46.95;;
30048;SDS011;16879;50.852;15.602;2024-02-14T11:17:09;73.35;;;42.45;;
30048;SDS011;16879;50.852;15.602;2024-02-14T11:19:37;68.07;;;37.72;;
30048;SDS011;16879;50.852;15.602;2024-02-14T11:22:10;60.63;;;33.38;;
30048;SDS011;16879;50.852;15.602;2024-02-14T11:24:39;54.47;;;34.03;;
30048;SDS011;16879;50.852;15.602;2024-02-14T11:27:10;54.55;;;32.10;;
30048;SDS011;16879;50.852;15.602;2024-02-14T11:29:40;47.70;;;29.05;;
30048;SDS011;16879;50.852;15.602;2024-02-14T11:32:17;54.15;;;30.02;;
30048;SDS011;16879;50.852;15.602;2024-02-14T11:34:43;59.22;;;33.28;;
30048;SDS011;16879;50.852;15.602;2024-02-14T11:37:09;36.63;;;21.23;;
30048;SDS011;16879;50.852;15.602;2024-02-14T11:39:35;30.75;;;17.60;;
30048;SDS011;16879;50.852;15.602;2024-02-14T11:42:03;31.90;;;18.70;;
30048;SDS011;16879;50.852;15.602;2024-02-14T11:44:29;32.22;;;19.45;;
30048;SDS011;16879;50.852;15.602;2024-02-14T11:46:55;23.48;;;14.13;;
30048;SDS011;16879;50.852;15.602;2024-02-14T11:49:21;15.35;;;7.13;;
30048;SDS011;16879;50.852;15.602;2024-02-14T11:51:48;12.25;;;7.05;;
30048;SDS011;16879;50.852;15.602;2024-02-14T11:54:14;11.10;;;5.65;;
30048;SDS011;16879;50.852;15.602;2024-02-14T11:56:40;9.27;;;3.67;;
30048;SDS011;16879;50.852;15.602;2024-02-14T11:59:07;6.93;;;4.25;;
30048;SDS011;16879;50.852;15.602;2024-02-14T12:01:35;5.63;;;3.22;;
30048;SDS011;16879;50.852;15.602;2024-02-14T12:04:02;3.53;;;2.88;;
30048;SDS011;16879;50.852;15.602;2024-02-14T12:06:29;8.60;;;3.17;;
30048;SDS011;16879;50.852;15.602;2024-02-14T12:09:02;10.75;;;4.20;;
30048;SDS011;16879;50.852;15.602;2024-02-14T12:11:35;4.88;;;3.33;;
30048;SDS011;16879;50.852;15.602;2024-02-14T12:14:08;4.95;;;3.05;;
30048;SDS011;16879;50.852;15.602;2024-02-14T12:16:37;4.93;;;2.83;;
30048;SDS011;16879;50.852;15.602;2024-02-14T12:19:08;5.20;;;2.70;;
30048;SDS011;16879;50.852;15.602;2024-02-14T12:21:38;6.80;;;3.25;;
30048;SDS011;16879;50.852;15.602;2024-02-14T12:24:06;11.23;;;5.43;;
30048;SDS011;16879;50.852;15.602;2024-02-14T12:26:33;5.35;;;3.38;;
30048;SDS011;16879;50.852;15.602;2024-02-14T12:29:05;6.07;;;3.25;;
30048;SDS011;16879;50.852;15.602;2024-02-14T12:31:32;8.00;;;3.33;;
30048;SDS011;16879;50.852;15.602;2024-02-14T12:33:59;4.95;;;3.67;;
30048;SDS011;16879;50.852;15.602;2024-02-14T12:36:30;5.35;;;2.75;;
30048;SDS011;16879;50.852;15.602;2024-02-14T12:38:58;6.63;;;3.83;;
30048;SDS011;16879;50.852;15.602;2024-02-14T12:41:24;6.60;;;3.40;;
30048;SDS011;16879;50.852;15.602;2024-02-14T12:43:54;13.38;;;8.18;;
30048;SDS011;16879;50.852;15.602;2024-02-14T12:46:20;15.77;;;7.18;;
30048;SDS011;16879;50.852;15.602;2024-02-14T12:48:48;47.15;;;16.92;;
30048;SDS011;16879;50.852;15.602;2024-02-14T12:51:14;45.45;;;19.27;;
30048;SDS011;16879;50.852;15.602;2024-02-14T12:53:40;20.42;;;9.65;;
30048;SDS011;16879;50.852;15.602;2024-02-14T12:56:06;8.65;;;4.47;;
30048;SDS011;16879;50.852;15.602;2024-02-14T12:58:33;6.78;;;4.47;;
30048;SDS011;16879;50.852;15.602;2024-02-14T13:00:59;6.57;;;4.70;;
30048;SDS011;16879;50.852;15.602;2024-02-14T13:03:26;5.85;;;4.00;;
30048;SDS011;16879;50.852;15.602;2024-02-14T13:05:53;7.78;;;4.45;;
30048;SDS011;16879;50.852;15.602;2024-02-14T13:08:21;8.93;;;5.30;;
30048;SDS011;16879;50.852;15.602;2024-02-14T13:10:48;7.28;;;4.88;;
30048;SDS011;16879;50.852;15.602;2024-02-14T13:13:14;11.05;;;6.10;;
30048;SDS011;16879;50.852;15.602;2024-02-14T13:15:40;11.75;;;7.63;;
30048;SDS011;16879;50.852;15.602;2024-02-14T13:18:09;8.95;;;6.05;;
30048;SDS011;16879;50.852;15.602;2024-02-14T13:20:35;5.95;;;4.72;;
30048;SDS011;16879;50.852;15.602;2024-02-14T13:23:02;13.68;;;7.78;;
30048;SDS011;16879;50.852;15.602;2024-02-14T13:25:28;16.70;;;7.18;;
30048;SDS011;16879;50.852;15.602;2024-02-14T13:27:54;15.68;;;7.82;;
30048;SDS011;16879;50.852;15.602;2024-02-14T13:30:20;17.85;;;8.23;;
30048;SDS011;16879;50.852;15.602;2024-02-14T13:32:47;12.13;;;6.90;;
30048;SDS011;16879;50.852;15.602;2024-02-14T13:35:13;13.63;;;6.70;;
30048;SDS011;16879;50.852;15.602;2024-02-14T13:37:40;11.90;;;6.82;;
30048;SDS011;16879;50.852;15.602;2024-02-14T13:40:06;13.00;;;7.25;;
30048;SDS011;16879;50.852;15.602;2024-02-14T13:42:38;11.98;;;7.10;;
30048;SDS011;16879;50.852;15.602;2024-02-14T13:45:04;11.85;;;7.75;;
30048;SDS011;16879;50.852;15.602;2024-02-14T13:47:39;11.82;;;7.25;;
30048;SDS011;16879;50.852;15.602;2024-02-14T13:50:05;9.07;;;5.50;;
30048;SDS011;16879;50.852;15.602;2024-02-14T13:52:31;11.85;;;5.72;;
30048;SDS011;16879;50.852;15.602;2024-02-14T13:54:58;8.07;;;5.38;;
30048;SDS011;16879;50.852;15.602;2024-02-14T13:57:24;7.93;;;6.18;;
30048;SDS011;16879;50.852;15.602;2024-02-14T13:59:50;8.18;;;4.70;;
30048;SDS011;16879;50.852;15.602;2024-02-14T14:02:16;10.02;;;5.38;;
30048;SDS011;16879;50.852;15.602;2024-02-14T14:04:42;7.90;;;4.95;;
30048;SDS011;16879;50.852;15.602;2024-02-14T14:07:08;6.22;;;5.00;;
30048;SDS011;16879;50.852;15.602;2024-02-14T14:09:34;8.73;;;5.90;;